Tiempo atmosférico en la estación meteorológica de Cañaveral, Cáceres (373 m.)



Fecha
DESCASC
Temp. máxima en grados centígrados (hora)
DESCASC
Temp. mínima en grados centígrados (hora)
DESCASC
Temp. media en grados centígrados
DESCASC
Racha de viento máxima en m/sg (hora)
DESCASC
Velocidad máxima media en intervalos de 10 minutos(hora)
DESCASC
Precipitaciones diarias en mm
DESCASC
Precipitaciones de 00:00 a 06:00 en mm
DESCASC
Precipitaciones de 06:00 a 12:00 en mm
DESCASC
Precipitaciones de 12:00 a 18:00 en mm
DESCASC
Precipitaciones de 18:00 a 24:00 en mm
DESCASC
04-03-2021 14.8 (16:20) 8.8 (07:50) 11.8 11.39 (07:20) 7.5 (07:10) 0 0 0 0 0
03-03-2021 17.7 (16:00) 9.5 (07:30) 13.6 12.22 (11:40) 8.61 (10:40) 0 0 0 0 0
02-03-2021 15.8 (16:00) 8.9 (05:40) 12.3 11.39 (09:50) 7.22 (10:10) 0 0 0 0 0
01-03-2021 14.8 (16:20) 8.6 (07:20) 11.7 13.33 (10:50) 9.17 (11:10) 0 0 0 0 0
28-02-2021 15.7 (16:00) 4.8 (00:00) 10.3 10 (10:00) 6.39 (10:00) 0 0 0 0 0
27-02-2021 19.4 (16:30) 10.7 (00:00) 15 9.44 (05:10) 6.39 (05:10) 0 0 0 0 0
26-02-2021 15.3 (17:00) 10.6 (00:00) 13 12.22 (08:30) 8.06 (11:00) 0 0 0 0 0
25-02-2021 14.1 (15:00) 8.8 (00:00) 11.5 9.17 (15:40) 6.11 (17:10) 0 0 0 0 0
24-02-2021 17.7 (15:40) 7 (00:00) 12.4 9.44 (13:00) 6.11 (12:50) 0 0 0 0 0
23-02-2021 16.1 (15:40) 4.1 (00:00) 10.1 8.61 (15:10) 5 (14:40) 0 0 0 0 0
22-02-2021 14.6 (16:50) 2.9 (00:00) 8.8 13.89 (01:50) 9.44 (00:40) 0 0 0 0 0
21-02-2021 13.5 (03:50) 6.4 (00:00) 10 14.44 (05:50) 9.17 (23:40) 6.6 0 5.2 1.4 0
20-02-2021 14.6 (17:20) 8 (00:00) 11.3 11.11 (15:00) 6.67 (15:10) 0 0 0 0 0
19-02-2021 16.9 (14:40) 8.2 (00:00) 12.5 8.89 (15:30) 5.83 (15:40) 0 0 0 0 0
18-02-2021 16.8 (16:50) 8.8 (00:00) 12.8 7.5 (17:30) 5.28 (17:40) 0 0 0 0 0
17-02-2021 17.8 (17:00) 8.8 (00:00) 13.3 5.28 (15:00) 3.06 (15:00) 0 0 0 0 0
16-02-2021 16.4 (17:10) 8 (00:00) 12.2 7.22 (00:20) 4.72 (00:30) 0 0 0 0 0
15-02-2021 16.7 (16:30) 7.9 (00:00) 12.3 11.67 (10:30) 7.78 (11:10) 0 0 0 0 0
14-02-2021 17.9 (16:10) 8.1 (00:00) 13 7.5 (11:10) 5 (23:40) 0 0 0 0 0
13-02-2021 17.2 (16:50) 6.4 (00:00) 11.8 5.28 (14:20) 3.89 (22:20) 0 0 0 0 0
12-02-2021 16.6 (16:30) 9.6 (00:00) 13.1 11.67 (03:30) 7.5 (03:40) 6 6 0 0 0
11-02-2021 15.3 (15:40) 11 (00:00) 13.2 7.5 (16:30) 5.28 (16:50) 3.2 2.2 0.2 0.4 0.4
10-02-2021 15.9 (15:50) 7.4 (00:00) 11.6 18.33 (02:40) 11.11 (02:40) 2 1.6 0 0 0.4
09-02-2021 12.1 (18:00) 8.7 (00:00) 10.4 19.17 (13:00) 11.67 (13:00) 13 1 5.4 6.2 0.4
08-02-2021 12.6 (14:10) 7.6 (00:00) 10.1 14.72 (15:30) 9.72 (14:00) 11 8.6 2.4 0 0
07-02-2021 10.5 (12:10) 4.3 (00:00) 7.4 13.33 (01:30) 9.72 (01:20) 0.2 0 0 0.2 0
06-02-2021 11.6 (16:40) 8.6 (00:00) 10.1 14.72 (23:40) 11.39 (23:30) 9 3.8 2.8 2.2 0.2
05-02-2021 11.5 (12:10) 8.8 (00:00) 10.2 10 (03:50) 6.39 (03:50) 13.2 1.8 5 1.8 4.6
04-02-2021 11.1 (00:00) 8.7 (00:00) 9.9 7.22 (14:00) 5.28 (13:30) 26.6 1.2 12 10.2 3.2

Gráficas

Temp. máximas Temp. mínimas Temp. medias Precipitaciones Rachas de viento máximas Velocidades máximas media en intervalos de 10 minutos

Datos horarios

Fecha y hora oficial Temperatura (ºC) Velocidad del viento (km/h) Dirección del viento Racha (km/h) Dirección de racha Precipitación (mm) Presión (hPa) Tendencia (hPa) Humedad (%)
2021-03-05 23:00:00 12.2 14 Nordeste 18 Nordeste 0 -- -- 63
2021-03-05 22:00:00 12.7 12 Nordeste 16 Nordeste 0 -- -- 61
2021-03-05 21:00:00 12.7 10 Nordeste 16 Nordeste 0 -- -- 61
2021-03-05 20:00:00 12.4 10 Nordeste 13 Nordeste 0 -- -- 65
2021-03-05 19:00:00 13.5 8 Nordeste 15 Este 0 -- -- 64
2021-03-05 18:00:00 14.9 12 Este 26 Sudeste 0 -- -- 57
2021-03-05 17:00:00 15.4 17 Este 37 Este 0 -- -- 53
2021-03-05 16:00:00 15.7 23 Este 42 Este 0 -- -- 53
2021-03-05 15:00:00 15.2 26 Este 43 Este 0 -- -- 54
2021-03-05 14:00:00 14.7 28 Este 43 Este 0 -- -- 60
2021-03-05 13:00:00 13.8 23 Este 37 Este 0 -- -- 60
2021-03-05 12:00:00 12 22 Este 34 Este 0 -- -- 68
2021-03-05 11:00:00 10.6 20 Este 35 Este 0 -- -- 72
2021-03-05 10:00:00 10.1 20 Este 33 Este 0 -- -- 73
2021-03-05 09:00:00 9.5 17 Este 35 Este 0 -- -- 73
2021-03-05 08:00:00 9.1 16 Nordeste 30 Nordeste 0 -- -- 76
2021-03-05 07:00:00 9.5 19 Este 36 Este 0 -- -- 75
2021-03-05 06:00:00 10.1 19 Este 31 Este 0 -- -- 74
2021-03-05 05:00:00 10.2 14 Este 20 Este 0 -- -- 80
2021-03-05 04:00:00 10.7 11 Nordeste 17 Este 0 -- -- 79
2021-03-05 03:00:00 10.8 11 Este 21 Nordeste 0 -- -- 78
2021-03-05 02:00:00 11.9 12 Este 20 Nordeste 0 -- -- 74
2021-03-05 01:00:00 12.1 12 Nordeste 17 Nordeste 0 -- -- 75
2021-03-05 00:00:00 12.3 11 Nordeste 17 Nordeste 0 -- -- 73
2021-03-04 23:00:00 12.7 11 Nordeste 19 Nordeste 0 -- -- 71
2021-03-04 22:00:00 13 9 Nordeste 12 Nordeste 0 -- -- 70
2021-03-04 21:00:00 13 6 Nordeste 12 Este 0 -- -- 70
2021-03-04 20:00:00 13.3 8 Nordeste 10 Nordeste 0 -- -- 69
2021-03-04 19:00:00 13.9 6 Este 17 Este 0 -- -- 67
2021-03-04 18:00:00 14.5 11 Este 22 Este 0 -- -- 64
2021-03-04 17:00:00 14.7 13 Este 21 Este 0 -- -- 64
2021-03-04 16:00:00 14.6 10 Este 17 Este 0 -- -- 66
2021-03-04 15:00:00 14.7 9 Este 22 Nordeste 0 -- -- 66
2021-03-04 14:00:00 14 16 Este 26 Este 0 -- -- 68
2021-03-04 13:00:00 12.7 15 Este 25 Este 0 -- -- 70
2021-03-04 12:00:00 12.5 18 Este 30 Este 0 -- -- 71
2021-03-04 11:00:00 10.7 20 Este 32 Este 0 -- -- 77
2021-03-04 10:00:00 9.8 14 Este 30 Este 0 -- -- 81
2021-03-04 09:00:00 9.3 19 Este 29 Este 0 -- -- 83
2021-03-04 08:00:00 8.9 18 Este 41 Este 0 -- -- 84
2021-03-04 07:00:00 9.3 23 Este 37 Este 0 -- -- 84
2021-03-04 06:00:00 10.3 22 Este 34 Este 0 -- -- 83
2021-03-04 05:00:00 10.1 22 Este 31 Este 0 -- -- 85
2021-03-04 04:00:00 10.6 17 Nordeste 30 Nordeste 0 -- -- 83
2021-03-04 03:00:00 11.1 18 Este 30 Nordeste 0 -- -- 82
2021-03-04 02:00:00 11.7 18 Este 29 Este 0 -- -- 79
2021-03-04 01:00:00 11.8 18 Este 29 Este 0 -- -- 80
2021-03-04 00:00:00 12.2 19 Este 32 Este 0 -- -- 79
2021-03-03 23:00:00 12.2 17 Este 26 Este 0 -- -- 81
2021-03-03 22:00:00 12.7 12 Nordeste 20 Este 0 -- -- 77
2021-03-03 21:00:00 12.8 14 Nordeste 18 Nordeste 0 -- -- 77
2021-03-03 20:00:00 13.5 12 Nordeste 18 Este 0 -- -- 74
2021-03-03 19:00:00 15.2 9 Nordeste 22 Este 0 -- -- 70
2021-03-03 18:00:00 16.7 12 Este 26 Este 0 -- -- 66
2021-03-03 17:00:00 17.3 16 Este 27 Este 0 -- -- 61
2021-03-03 16:00:00 17.7 13 Este 28 Este 0 -- -- 62
2021-03-03 15:00:00 17.1 17 Este 29 Este 0 -- -- 63
2021-03-03 14:00:00 16.2 20 Este 34 Este 0 -- -- 68
2021-03-03 13:00:00 15.2 24 Este 37 Este 0 -- -- 67
2021-03-03 12:00:00 14.3 25 Este 44 Este 0 -- -- 69
2021-03-03 11:00:00 12.8 29 Este 43 Este 0 -- -- 75
2021-03-03 10:00:00 11.5 24 Este 35 Este 0 -- -- 80
2021-03-03 09:00:00 10.1 19 Este 34 Este 0 -- -- 83
2021-03-03 08:00:00 9.6 21 Este 35 Este 0 -- -- 84
2021-03-03 07:00:00 9.6 24 Este 36 Este 0 -- -- 84
2021-03-03 06:00:00 9.8 22 Este 32 Este 0 -- -- 83
2021-03-03 05:00:00 9.7 21 Este 32 Este 0 -- -- 82
2021-03-03 04:00:00 10.3 19 Este 34 Este 0 -- -- 79
2021-03-03 03:00:00 10.3 18 Este 32 Nordeste 0 -- -- 79
2021-03-03 02:00:00 10.4 16 Este 31 Este 0 -- -- 78
2021-03-03 01:00:00 11.4 18 Este 26 Este 0 -- -- 74
2021-03-03 00:00:00 11.8 15 Nordeste 23 Este 0 -- -- 72
2021-03-02 23:00:00 11.9 13 Nordeste 20 Nordeste 0 -- -- 72
2021-03-02 22:00:00 12.5 12 Nordeste 17 Nordeste 0 -- -- 72
2021-03-02 21:00:00 13 10 Nordeste 15 Nordeste 0 -- -- 71
2021-03-02 20:00:00 13.3 11 Nordeste 15 Nordeste 0 -- -- 70
2021-03-02 19:00:00 14.1 11 Este 22 Este 0 -- -- 69
2021-03-02 18:00:00 14.9 16 Este 26 Este 0 -- -- 66
2021-03-02 17:00:00 15.1 16 Este 29 Este 0 -- -- 66
2021-03-02 16:00:00 15.8 18 Este 30 Este 0 -- -- 64
2021-03-02 15:00:00 15.2 20 Este 32 Este 0 -- -- 67
2021-03-02 14:00:00 14.9 21 Este 34 Este 0 -- -- 66
2021-03-02 13:00:00 13.7 21 Este 37 Este 0 -- -- 71
2021-03-02 12:00:00 13.3 24 Este 39 Este 0 -- -- 72
2021-03-02 11:00:00 11.2 23 Este 41 Este 0 -- -- 80
2021-03-02 10:00:00 10.3 23 Este 41 Este 0 -- -- 82
2021-03-02 09:00:00 9.9 21 Este 37 Este 0 -- -- 82
2021-03-02 08:00:00 9.7 18 Este 34 Este 0 -- -- 83
2021-03-02 07:00:00 9.5 17 Este 32 Este 0 -- -- 84
2021-03-02 06:00:00 9.4 18 Este 27 Este 0 -- -- 84
2021-03-02 05:00:00 9.3 13 Este 28 Este 0 -- -- 83
2021-03-02 04:00:00 9.2 17 Este 29 Este 0 -- -- 83
2021-03-02 03:00:00 9.7 17 Este 25 Este 0 -- -- 82
2021-03-02 02:00:00 9.8 12 Este 25 Este 0 -- -- 83
2021-03-02 01:00:00 10 15 Este 24 Este 0 -- -- 83
2021-03-02 00:00:00 10.5 14 Este 29 Este 0 -- -- 81
2021-03-01 23:00:00 11.2 20 Este 32 Este 0 -- -- 78
2021-03-01 22:00:00 10.9 15 Este 27 Este 0 -- -- 79
2021-03-01 21:00:00 10.8 14 Este 23 Este 0 -- -- 79
2021-03-01 20:00:00 11.3 11 Este 28 Este 0 -- -- 78
2021-03-01 19:00:00 12.3 15 Este 30 Este -- -- -- 75
2021-03-01 18:00:00 13.5 23 Este 35 Este 0 -- -- 70
2021-03-01 17:00:00 14.5 17 Este 33 Este 0 -- -- 66
2021-03-01 16:00:00 14.7 19 Este 32 Este 0 -- -- 66
2021-03-01 15:00:00 14.2 18 Este 33 Este 0 -- -- 65
2021-03-01 14:00:00 13.5 19 Este 39 Este 0 -- -- 68
2021-03-01 13:00:00 13.5 26 Este 40 Este 0 -- -- 66
2021-03-01 12:00:00 12.6 26 Este 48 Este 0 -- -- 68
2021-03-01 11:00:00 11.6 27 Este 48 Este 0 -- -- 71
2021-03-01 10:00:00 10.4 24 Este 40 Este 0 -- -- 74
2021-03-01 09:00:00 9 23 Este 42 Este 0 -- -- 78
2021-03-01 08:00:00 8.8 27 Este 47 Este 0 -- -- 80
2021-03-01 07:00:00 9 27 Este 47 Este 0 -- -- 80
2021-03-01 06:00:00 9.2 21 Este 37 Este 0 -- -- 76
2021-03-01 05:00:00 9.6 19 Este 39 Este 0 -- -- 76
2021-03-01 04:00:00 10.2 24 Este 36 Este 0 -- -- 74
2021-03-01 03:00:00 11 19 Este 31 Este 0 -- -- 71
2021-03-01 02:00:00 10.8 16 Este 27 Este 0 -- -- 72
2021-03-01 01:00:00 10.8 13 Nordeste 19 Nordeste 0 -- -- 73
2021-03-01 00:00:00 11.7 10 Nordeste 15 Nordeste 0 -- -- 69
2021-02-28 23:00:00 11.7 10 Nordeste 15 Nordeste -- -- -- 70
2021-02-28 22:00:00 11.4 9 Nordeste 15 Nordeste 0 -- -- 71
2021-02-28 21:00:00 11.4 12 Nordeste 17 Este 0 -- -- 72
2021-02-28 20:00:00 12.1 11 Nordeste 16 Este 0 -- -- 71
2021-02-28 19:00:00 14.1 9 Este 18 Este 0 -- -- 64
2021-02-28 18:00:00 15.4 12 Este 18 Este 0 -- -- 59
2021-02-28 17:00:00 15.6 12 Este 20 Este 0 -- -- 58
2021-02-28 16:00:00 15.7 9 Este 23 Este 0 -- -- 56
2021-02-28 15:00:00 15.1 10 Este 21 Sudeste 0 -- -- 57
2021-02-28 14:00:00 14.4 13 Este 22 Este 0 -- -- 59
2021-02-28 13:00:00 13.7 14 Este 24 Este 0 -- -- 61
2021-02-28 12:00:00 12.5 17 Este 27 Este 0 -- -- 64
2021-02-28 11:00:00 11.7 17 Este 36 Nordeste 0 -- -- 65
2021-02-28 10:00:00 10.1 23 Este 36 Nordeste 0 -- -- 70
2021-02-28 09:00:00 8.4 17 Este 26 Este 0 -- -- 75
2021-02-28 08:00:00 5.4 8 Nordeste 16 Este 0 -- -- 85
2021-02-28 07:00:00 10.3 14 Este 26 Nordeste 0 -- -- 62
2021-02-28 06:00:00 9.7 13 Nordeste 21 Nordeste 0 -- -- 64
2021-02-28 05:00:00 9.4 9 Nordeste 14 Nordeste 0 -- -- 66
2021-02-28 04:00:00 7.3 0 Calma 5 Oeste 0 -- -- 79
2021-02-28 03:00:00 8.1 0 Calma 11 Nordeste 0 -- -- 73
2021-02-28 02:00:00 10.1 7 Norte 12 Nordeste 0 -- -- 63
2021-02-28 01:00:00 12 8 Norte 9 Norte 0 -- -- 54
2021-02-28 00:00:00 11.3 0 Calma 6 Oeste 0 -- -- 57
2021-02-27 23:00:00 12.2 0 Calma 12 Norte 0 -- -- 55
2021-02-27 22:00:00 14.6 8 Nordeste 14 Nordeste 0 -- -- 41
2021-02-27 21:00:00 15.2 11 Nordeste 16 Nordeste 0 -- -- 45
2021-02-27 20:00:00 14.8 10 Nordeste 14 Nordeste 0 -- -- 56
2021-02-27 19:00:00 16.4 9 Nordeste 19 Nordeste 0 -- -- 53
2021-02-27 18:00:00 18.6 13 Nordeste 19 Nordeste 0 -- -- 44
2021-02-27 17:00:00 19 14 Nordeste 26 Este 0 -- -- 43
2021-02-27 16:00:00 19.2 19 Este 34 Este 0 -- -- 41
2021-02-27 15:00:00 18.8 19 Este 28 Este 0 -- -- 43
2021-02-27 14:00:00 17.8 16 Este 28 Este 0 -- -- 48
2021-02-27 13:00:00 16.9 18 Nordeste 33 Este 0 -- -- 49
2021-02-27 12:00:00 15.9 16 Este 28 Este 0 -- -- 54
2021-02-27 11:00:00 13.5 12 Nordeste 23 Nordeste 0 -- -- 63
2021-02-27 10:00:00 12.7 16 Este 30 Este 0 -- -- 65
2021-02-27 09:00:00 11.4 17 Nordeste 34 Nordeste 0 -- -- 67
2021-02-27 08:00:00 11.4 22 Nordeste 34 Nordeste 0 -- -- 66
2021-02-27 07:00:00 11.5 17 Nordeste 31 Nordeste 0 -- -- 66
2021-02-27 06:00:00 11.9 22 Nordeste 34 Nordeste 0 -- -- 65
2021-02-27 05:00:00 12.4 22 Nordeste 32 Nordeste 0 -- -- 64
2021-02-27 04:00:00 12.4 16 Nordeste 23 Nordeste 0 -- -- 64
2021-02-27 03:00:00 12.8 13 Nordeste 22 Nordeste 0 -- -- 64
2021-02-27 02:00:00 13.3 14 Nordeste 22 Nordeste 0 -- -- 64
2021-02-27 01:00:00 13.5 13 Nordeste 24 Nordeste 0 -- -- 64
2021-02-27 00:00:00 13.6 14 Nordeste 29 Nordeste 0 -- -- 65
2021-02-26 23:00:00 14 18 Nordeste 27 Nordeste 0 -- -- 65
2021-02-26 22:00:00 13.1 13 Nordeste 22 Nordeste 0 -- -- 69
2021-02-26 21:00:00 13.3 11 Nordeste 18 Nordeste 0 -- -- 70
2021-02-26 20:00:00 13.3 10 Nordeste 18 Nordeste 0 -- -- 72
2021-02-26 19:00:00 14.1 6 Nordeste 13 Nordeste 0 -- -- 71
2021-02-26 18:00:00 15 7 Nordeste 19 Nordeste 0 -- -- 67
2021-02-26 17:00:00 15.3 12 Nordeste 22 Nordeste 0 -- -- 65
2021-02-26 16:00:00 14.7 15 Este 29 Este 0 -- -- 66
2021-02-26 15:00:00 14.1 20 Este 39 Este 0 -- -- 68
2021-02-26 14:00:00 13.6 26 Este 40 Este 0 -- -- 69
2021-02-26 13:00:00 14 25 Este 39 Este 0 -- -- 69
2021-02-26 12:00:00 12.3 21 Este 40 Este 0 -- -- 75
2021-02-26 11:00:00 11.8 29 Este 44 Nordeste 0 -- -- 75
2021-02-26 10:00:00 11.1 22 Este 42 Este 0 -- -- 78
2021-02-26 09:00:00 10.7 24 Este 44 Este 0 -- -- 80
2021-02-26 08:00:00 10.6 27 Este 41 Este 0 -- -- 81
2021-02-26 07:00:00 10.8 22 Este 39 Este 0 -- -- 81
2021-02-26 06:00:00 11.1 23 Este 38 Este 0 -- -- 79
2021-02-26 05:00:00 11.6 27 Este 41 Nordeste 0 -- -- 76
2021-02-26 04:00:00 11.9 23 Este 39 Este 0 -- -- 73
2021-02-26 03:00:00 11.5 19 Nordeste 27 Nordeste 0 -- -- 73
2021-02-26 02:00:00 11.7 15 Nordeste 22 Nordeste 0 -- -- 72
2021-02-26 01:00:00 11.9 12 Nordeste 19 Nordeste 0 -- -- 72
2021-02-26 00:00:00 11.6 14 Nordeste 23 Nordeste 0 -- -- 74
2021-02-25 23:00:00 11.6 17 Nordeste 27 Este 0 -- -- 75
2021-02-25 22:00:00 11.6 16 Este 27 Nordeste 0 -- -- 76
2021-02-25 21:00:00 11.7 15 Este 22 Este 0 -- -- 76
2021-02-25 20:00:00 12.1 13 Este 26 Este 0 -- -- 75
2021-02-25 19:00:00 12.4 18 Este 28 Este 0 -- -- 73
2021-02-25 18:00:00 12.6 17 Este 32 Este 0 -- -- 70
2021-02-25 17:00:00 13.2 19 Este 30 Este 0 -- -- 68
2021-02-25 16:00:00 13.8 19 Este 33 Este 0 -- -- 68
2021-02-25 15:00:00 14.1 15 Este 28 Este 0 -- -- 69
2021-02-25 14:00:00 13.6 17 Este 26 Este 0 -- -- 69
2021-02-25 13:00:00 12 14 Este 26 Este 0 -- -- 75
2021-02-25 12:00:00 11.5 15 Este 27 Este 0 -- -- 76
2021-02-25 11:00:00 9.8 15 Este 25 Este 0 -- -- 81
2021-02-25 10:00:00 9.3 12 Este 23 Este 0 -- -- 84
2021-02-25 09:00:00 8.9 9 Nordeste 25 Este 0 -- -- 85
2021-02-25 08:00:00 8.9 14 Este 23 Este 0 -- -- 86
2021-02-25 07:00:00 10 11 Este 20 Este 0 -- -- 81
2021-02-25 06:00:00 10.1 4 Norte 15 Este 0 -- -- 78
2021-02-25 05:00:00 9.9 0 Calma 12 Este 0 -- -- 80
2021-02-25 04:00:00 10 9 Este 14 Nordeste 0 -- -- 83
2021-02-25 03:00:00 10.7 10 Nordeste 15 Este 0 -- -- 80
2021-02-25 02:00:00 11 9 Nordeste 14 Este 0 -- -- 77
2021-02-25 01:00:00 11.7 9 Nordeste 13 Nordeste 0 -- -- 74
2021-02-25 00:00:00 11.4 10 Nordeste 14 Nordeste 0 -- -- 77
2021-02-24 23:00:00 12.5 7 Nordeste 10 Nordeste 0 -- -- 73
2021-02-24 22:00:00 12.6 8 Nordeste 13 Nordeste 0 -- -- 74
2021-02-24 21:00:00 12.7 7 Norte 20 Este 0 -- -- 74
2021-02-24 20:00:00 13.3 13 Este 21 Este 0 -- -- 72
2021-02-24 19:00:00 16 7 Sudeste 19 Sudeste 0 -- -- 59
2021-02-24 18:00:00 17.1 13 Sudeste 24 Sudeste 0 -- -- 55
2021-02-24 17:00:00 17.5 16 Sudeste 24 Este 0 -- -- 52
2021-02-24 16:00:00 17.2 16 Este 25 Este 0 -- -- 58
2021-02-24 15:00:00 16.9 10 Este 27 Este 0 -- -- 60
2021-02-24 14:00:00 15.7 19 Este 32 Este 0 -- -- 62
2021-02-24 13:00:00 14.4 21 Este 34 Este 0 -- -- 63
2021-02-24 12:00:00 13.1 16 Este 33 Este 0 -- -- 65
2021-02-24 11:00:00 11.3 21 Este 34 Este 0 -- -- 73
2021-02-24 10:00:00 9.6 19 Este 29 Este 0 -- -- 76
2021-02-24 09:00:00 7.6 9 Nordeste 14 Nordeste 0 -- -- 81
2021-02-24 08:00:00 7.1 7 Nordeste 13 Nordeste 0 -- -- 81
2021-02-24 07:00:00 7.6 9 Nordeste 21 Nordeste 0 -- -- 79
2021-02-24 06:00:00 8.2 16 Este 24 Este 0 -- -- 78
2021-02-24 05:00:00 8.2 13 Nordeste 24 Este 0 -- -- 78
2021-02-24 04:00:00 8.3 14 Nordeste 23 Nordeste 0 -- -- 78
2021-02-24 03:00:00 8.7 9 Nordeste 14 Nordeste 0 -- -- 79
2021-02-24 02:00:00 9 3 Nordeste 21 Nordeste 0 -- -- 76
2021-02-24 01:00:00 9.9 15 Nordeste 22 Nordeste 0 -- -- 72
2021-02-24 00:00:00 10.2 15 Nordeste 22 Nordeste 0 -- -- 71
2021-02-23 23:00:00 10.6 14 Nordeste 20 Nordeste 0 -- -- 68
2021-02-23 22:00:00 10.8 11 Nordeste 17 Este 0 -- -- 67
2021-02-23 21:00:00 11 12 Nordeste 17 Este 0 -- -- 66
2021-02-23 20:00:00 11.9 9 Nordeste 12 Este 0 -- -- 63
2021-02-23 19:00:00 14.4 5 Este 20 Este 0 -- -- 54
2021-02-23 18:00:00 15.4 15 Este 24 Sudeste 0 -- -- 50
2021-02-23 17:00:00 15.9 13 Este 25 Sudeste 0 -- -- 50
2021-02-23 16:00:00 15.9 13 Este -- -- -- -- -- 50
2021-02-23 15:00:00 15.2 15 Este 28 Este 1 -- -- 51
2021-02-23 14:00:00 14.2 14 Este 26 Este 0 -- -- 56
2021-02-23 13:00:00 13 17 Este 24 Sudeste 0 -- -- 57
2021-02-23 12:00:00 11.6 14 Este 24 Este 0 -- -- 66
2021-02-23 11:00:00 10 14 Este 22 Este 0 -- -- 69
2021-02-23 10:00:00 7.9 13 Este 22 Este 0 -- -- 74
2021-02-23 09:00:00 5.6 8 Nordeste 18 Nordeste 0 -- -- 81
2021-02-23 08:00:00 4.1 9 Nordeste 22 Nordeste 0 -- -- 85
2021-02-23 07:00:00 4.9 11 Nordeste 19 Este 0 -- -- 83
2021-02-23 06:00:00 6.5 8 Nordeste 15 Nordeste 0 -- -- 79
2021-02-23 05:00:00 6.6 6 Nordeste 15 Nordeste 0 -- -- 79
2021-02-23 04:00:00 7.3 10 Nordeste 17 Nordeste 0 -- -- 76
2021-02-23 03:00:00 7.4 10 Nordeste 18 Nordeste 0 -- -- 76
2021-02-23 02:00:00 7.6 10 Nordeste 16 Nordeste 0 -- -- 74
2021-02-23 01:00:00 8.4 6 Norte 10 Nordeste 0 -- -- 72
2021-02-23 00:00:00 7 8 Este 10 Nordeste 0 -- -- 78
2021-02-22 23:00:00 9.6 2 Norte 6 Este 0 -- -- 67
2021-02-22 22:00:00 8.4 0 Calma 3 Norte 0 -- -- 72
2021-02-22 21:00:00 9.7 0 Calma 6 Norte 0 -- -- 66
2021-02-22 20:00:00 10.2 4 Norte 8 Oeste 0 -- -- 66
2021-02-22 19:00:00 12.6 6 Oeste 19 Oeste 0 -- -- 57
2021-02-22 18:00:00 14.1 13 Oeste 22 Sudoeste 0 -- -- 52
2021-02-22 17:00:00 14.5 12 Oeste 24 Sudoeste 0 -- -- 51
2021-02-22 16:00:00 14.1 14 Oeste 26 Oeste 0 -- -- 55
2021-02-22 15:00:00 13.6 15 Oeste 28 Sudoeste 0 -- -- 52
2021-02-22 14:00:00 12.8 11 Sudoeste 24 Oeste 0 -- -- 50
2021-02-22 13:00:00 12.2 12 Sudoeste 22 Oeste 0 -- -- 59
2021-02-22 12:00:00 10.3 9 Noroeste 17 Noroeste 0 -- -- 58
2021-02-22 11:00:00 9.1 9 Noroeste 18 Noroeste 0 -- -- 62
2021-02-22 10:00:00 7.5 6 Sudoeste 11 Sur 0 -- -- 79
2021-02-22 09:00:00 4.2 2 Oeste 11 Oeste 0 -- -- 85
2021-02-22 08:00:00 3 4 Oeste 23 Noroeste 0 -- -- 87
2021-02-22 07:00:00 6.4 13 Noroeste 27 Noroeste 0 -- -- 68
2021-02-22 06:00:00 6.8 14 Noroeste 35 Oeste 0 -- -- 68
2021-02-22 05:00:00 6.9 17 Noroeste 38 Noroeste 0 -- -- 67
2021-02-22 04:00:00 7.2 24 Noroeste 46 Noroeste 0 -- -- 65
2021-02-22 03:00:00 7.1 29 Noroeste 49 Noroeste 0 -- -- 65
2021-02-22 02:00:00 7.5 31 Noroeste 50 Oeste 0 -- -- 67
2021-02-22 01:00:00 7.9 34 Noroeste 47 Noroeste 0 -- -- 68
2021-02-22 00:00:00 8.5 32 Noroeste 44 Noroeste 0 -- -- 68
2021-02-21 23:00:00 8.2 26 Noroeste 41 Oeste 0 -- -- 71
2021-02-21 22:00:00 8.3 24 Oeste 38 Oeste 0 -- -- 75
2021-02-21 21:00:00 8.8 21 Oeste 39 Oeste 0 -- -- 74
2021-02-21 20:00:00 9.6 17 Oeste 38 Oeste 0 -- -- 70
2021-02-21 19:00:00 10.3 19 Oeste 45 Oeste 0 -- -- 66
2021-02-21 18:00:00 9.9 19 Oeste 36 Oeste 0 -- -- 70
2021-02-21 17:00:00 9.7 9 Noroeste 30 Noroeste 0 -- -- 73
2021-02-21 16:00:00 9.6 12 Noroeste 31 Norte 0 -- -- 76
2021-02-21 15:00:00 9.2 10 Noroeste 33 Noroeste 0 -- -- 80
2021-02-21 14:00:00 9.3 11 Noroeste 30 Norte 0 -- -- 81
2021-02-21 13:00:00 7.4 22 Norte 36 Norte 1.4 -- -- 90
2021-02-21 12:00:00 6.6 22 Norte 46 Noroeste 1 -- -- 91
2021-02-21 11:00:00 7.4 10 Noroeste 23 Sudoeste 1 -- -- 92
2021-02-21 10:00:00 7.8 18 Oeste 27 Oeste 0.6 -- -- 92
2021-02-21 09:00:00 8.2 19 Oeste 28 Oeste 1 -- -- 92
2021-02-21 08:00:00 9.6 11 Sur 27 Sur 0.4 -- -- 92
2021-02-21 07:00:00 10.2 19 Sur 48 Sur 1.2 -- -- 88
2021-02-21 06:00:00 12.9 26 Sur 52 Sudeste 0 -- -- 65
2021-02-21 05:00:00 13.4 22 Sudeste 39 Sur 0 -- -- 52
2021-02-21 04:00:00 13.4 18 Sur 36 Sudeste 0 -- -- 55
2021-02-21 03:00:00 13.3 18 Sudeste 31 Este 0 -- -- 57
2021-02-21 02:00:00 12.8 13 Este 24 Este 0 -- -- 62
2021-02-21 01:00:00 12.7 15 Este 26 Este 0 -- -- 61
2021-02-21 00:00:00 12.4 10 Este 22 Este 0 -- -- 60
2021-02-20 23:00:00 12.9 15 Este 27 Este 0 -- -- 54
2021-02-20 22:00:00 13.1 13 Este 26 Este 0 -- -- 53
2021-02-20 21:00:00 13 15 Este 30 Sudeste 0 -- -- 53
2021-02-20 20:00:00 14 20 Este 38 Este 0 -- -- 49
2021-02-20 19:00:00 14.3 20 Sudeste 32 Sudeste 0 -- -- 49
2021-02-20 18:00:00 14.3 19 Sudeste 35 Sudeste 0 -- -- 51
2021-02-20 17:00:00 14.4 19 Sudeste 38 Sudeste 0 -- -- 53
2021-02-20 16:00:00 14.1 16 Sudeste 37 Sur 0 -- -- 59
2021-02-20 15:00:00 14 22 Sur 40 Sudeste 0 -- -- 61
2021-02-20 14:00:00 13.3 19 Sudeste 30 Sudeste 0 -- -- 68
2021-02-20 13:00:00 12.6 14 Sudeste 32 Sur 0 -- -- 73
2021-02-20 12:00:00 12.2 23 Sur 36 Sudeste 0 -- -- 75
2021-02-20 11:00:00 11.2 15 Sudeste 31 Sudeste 0 -- -- 83
2021-02-20 10:00:00 10.2 12 Sudeste 24 Este 0 -- -- 87
2021-02-20 09:00:00 9.5 10 Sudeste 19 Sudeste 0 -- -- 89
2021-02-20 08:00:00 9.3 8 Sudeste 17 Sudeste 0 -- -- 88
2021-02-20 07:00:00 9.3 3 Sudoeste 14 Este 0 -- -- 86
2021-02-20 06:00:00 8.9 5 Sudeste 10 Sudeste 0 -- -- 88
2021-02-20 05:00:00 8.3 5 Nordeste 12 Este 0 -- -- 89
2021-02-20 04:00:00 8.1 6 Nordeste 10 Nordeste 0 -- -- 90
2021-02-20 03:00:00 8.4 4 Nordeste 11 Este 0 -- -- 89
2021-02-20 02:00:00 8.5 5 Nordeste 9 Este 0 -- -- 89
2021-02-20 01:00:00 8.9 3 Nordeste 11 Nordeste 0 -- -- 88
2021-02-20 00:00:00 9.5 6 Nordeste 11 Este 0 -- -- 85
2021-02-19 23:00:00 9.9 6 Nordeste 11 Este 0 -- -- 82
2021-02-19 22:00:00 10.5 6 Este 9 Este 0 -- -- 80
2021-02-19 21:00:00 11.3 2 Sur 10 Sudeste 0 -- -- 78
2021-02-19 20:00:00 11.9 3 Sudoeste 14 Sur 0 -- -- 75
2021-02-19 19:00:00 13 9 Sur 20 Sur 0 -- -- 71
2021-02-19 18:00:00 14 13 Sudoeste 24 Sudoeste 0 -- -- 66
2021-02-19 17:00:00 14.8 16 Sudoeste 29 Sudoeste 0 -- -- 65
2021-02-19 16:00:00 15.3 18 Sudoeste 32 Sudoeste 0 -- -- 61
2021-02-19 15:00:00 16.3 19 Sudoeste 28 Oeste 0 -- -- 64
2021-02-19 14:00:00 16.1 14 Sur 24 Sur 0 -- -- 62
2021-02-19 13:00:00 14.9 15 Sur 23 Sur 0 -- -- 65
2021-02-19 12:00:00 13.5 13 Sudeste 25 Sudeste 0 -- -- 72
2021-02-19 11:00:00 12 9 Sudeste 16 Sudeste 0 -- -- 78
2021-02-19 10:00:00 10.4 6 Este 15 Este 0 -- -- 82
2021-02-19 09:00:00 8.3 8 Nordeste 14 Nordeste 0 -- -- 87
2021-02-19 08:00:00 8.5 7 Nordeste 13 Nordeste 0 -- -- 84
2021-02-19 07:00:00 9 9 Nordeste 13 Nordeste 0 -- -- 89
2021-02-19 06:00:00 9.2 7 Nordeste 12 Este 0 -- -- 85
2021-02-19 05:00:00 9.1 8 Nordeste 12 Este 0 -- -- 80
2021-02-19 04:00:00 9.3 7 Nordeste 10 Nordeste 0 -- -- 76
2021-02-19 03:00:00 9.6 6 Este 9 Este 0 -- -- 73
2021-02-19 02:00:00 10 5 Este 9 Este 0 -- -- 72
2021-02-19 01:00:00 9.9 5 Este 9 Nordeste 0 -- -- 75
2021-02-19 00:00:00 11.4 4 Nordeste 8 Nordeste 0 -- -- 70
2021-02-18 23:00:00 11.5 5 Nordeste 8 Nordeste 0 -- -- 72
2021-02-18 22:00:00 11.4 3 Nordeste 13 Sur 0 -- -- 74
2021-02-18 21:00:00 12.2 0 Calma 5 Nordeste 0 -- -- 73
2021-02-18 20:00:00 12.8 3 Nordeste 10 Sudoeste 0 -- -- 71
2021-02-18 19:00:00 13.9 9 Sudoeste 21 Sudoeste 0 -- -- 67
2021-02-18 18:00:00 15.8 14 Sudoeste 27 Sur 0 -- -- 61
2021-02-18 17:00:00 16.8 15 Sudoeste 21 Sur 0 -- -- 59
2021-02-18 16:00:00 16.3 10 Sur 18 Sudeste 0 -- -- 63
2021-02-18 15:00:00 15 9 Sudeste 17 Sur 0 -- -- 69
2021-02-18 14:00:00 13.6 4 Sur 9 Sudeste 0 -- -- 74
2021-02-18 13:00:00 10.9 2 Norte 9 Sudoeste 0 -- -- 87
2021-02-18 12:00:00 10 5 Sur 11 Sur 0 -- -- 91
2021-02-18 11:00:00 10.3 5 Sudeste 11 Sur 0 -- -- 90
2021-02-18 10:00:00 10.4 2 Sudeste 5 Nordeste 0 -- -- 90
2021-02-18 09:00:00 8.9 3 Nordeste 5 Nordeste 0 -- -- 93
2021-02-18 08:00:00 9.1 3 Nordeste 5 Nordeste 0 -- -- 92
2021-02-18 07:00:00 9.1 3 Nordeste 6 Nordeste 0 -- -- 92
2021-02-18 06:00:00 9.3 3 Este 6 Nordeste 0 -- -- 92
2021-02-18 05:00:00 9.6 4 Noroeste 14 Oeste 0 -- -- 91
2021-02-18 04:00:00 10.3 9 Oeste 18 Oeste 0 -- -- 91
2021-02-18 03:00:00 10.2 4 Sudoeste 8 Sudoeste 0 -- -- 88
2021-02-18 02:00:00 10.2 0 Calma 8 Oeste 0 -- -- 86
2021-02-18 01:00:00 11 5 Oeste 9 Sudoeste 0 -- -- 81
2021-02-18 00:00:00 11.6 4 Sudoeste 6 Sudoeste 0 -- -- 77
2021-02-17 23:00:00 11.9 0 Calma 6 Este 0 -- -- 76
2021-02-17 22:00:00 12.5 5 Oeste 8 Oeste 0 -- -- 74
2021-02-17 21:00:00 13.2 0 Calma 6 Sudoeste 0 -- -- 75
2021-02-17 20:00:00 13.9 0 Calma 9 Sudeste 0 -- -- 77
2021-02-17 19:00:00 15.3 6 Este 14 Sudeste 0 -- -- 73
2021-02-17 18:00:00 17.1 8 Sudeste 14 Sudeste 0 -- -- 65
2021-02-17 17:00:00 17.8 4 Sur 17 Sudeste 0 -- -- 62
2021-02-17 16:00:00 17.3 6 Sur 13 Sudeste 0 -- -- 64
2021-02-17 15:00:00 16.7 11 Sur 19 Sudeste 0 -- -- 66
2021-02-17 14:00:00 16.3 9 Sudeste 17 Sudeste 0 -- -- 72
2021-02-17 13:00:00 14.8 5 Sudeste 14 Sudeste 0 -- -- 76
2021-02-17 12:00:00 13.9 5 Este 10 Este 0 -- -- 80
2021-02-17 11:00:00 12 5 Este 11 Nordeste 0 -- -- 85
2021-02-17 10:00:00 10.7 4 Este 14 Este 0 -- -- 87
2021-02-17 09:00:00 9.6 9 Nordeste 16 Nordeste 0 -- -- 88
2021-02-17 08:00:00 9 2 Este 10 Este 0 -- -- 88
2021-02-17 07:00:00 9.4 5 Este 11 Nordeste 0 -- -- 88
2021-02-17 06:00:00 9.4 7 Nordeste 12 Nordeste 0 -- -- 89
2021-02-17 05:00:00 9 7 Nordeste 10 Nordeste 0 -- -- 91
2021-02-17 04:00:00 9.7 4 Este 7 Nordeste 0 -- -- 86
2021-02-17 03:00:00 10.1 3 Nordeste 5 Nordeste 0 -- -- 88
2021-02-17 02:00:00 10.3 5 Sudeste 8 Sudeste 0 -- -- 86
2021-02-17 01:00:00 11.3 3 Nordeste 6 Nordeste 0 -- -- 83
2021-02-17 00:00:00 11.2 0 Calma 4 Nordeste 0 -- -- 83
2021-02-16 23:00:00 11.7 0 Calma 4 Nordeste 0 -- -- 81
2021-02-16 22:00:00 12.3 3 Nordeste 4 Nordeste 0 -- -- 79
2021-02-16 21:00:00 12.7 2 Este 8 Sur 0 -- -- 77
2021-02-16 20:00:00 13.4 4 Este 6 Sudeste 0 -- -- 73
2021-02-16 19:00:00 14.4 0 Calma 7 Sudoeste 0 -- -- 70
2021-02-16 18:00:00 15.2 5 Oeste 11 Oeste 0 -- -- 68
2021-02-16 17:00:00 16 9 Sudoeste 16 Sudoeste 0 -- -- 63
2021-02-16 16:00:00 16 10 Sudoeste 21 Sudoeste 0 -- -- 63
2021-02-16 15:00:00 16 7 Sur 17 Sur 0 -- -- 63
2021-02-16 14:00:00 14.6 9 Sudeste 17 Sur 0 -- -- 64
2021-02-16 13:00:00 13.8 7 Sudeste 14 Sur 0 -- -- 64
2021-02-16 12:00:00 12.9 4 Sudeste 12 Nordeste 0 -- -- 67
2021-02-16 11:00:00 11.9 8 Este 13 Este 0 -- -- 72
2021-02-16 10:00:00 9.1 9 Este 15 Este 0 -- -- 83
2021-02-16 09:00:00 8.4 10 Nordeste 17 Nordeste 0 -- -- 84
2021-02-16 08:00:00 8.1 10 Nordeste 17 Nordeste 0 -- -- 85
2021-02-16 07:00:00 8.4 11 Nordeste 17 Nordeste 0 -- -- 84
2021-02-16 06:00:00 8.9 10 Nordeste 17 Nordeste 0 -- -- 84
2021-02-16 05:00:00 8.9 8 Nordeste 17 Nordeste 0 -- -- 85
2021-02-16 04:00:00 9.6 12 Nordeste 18 Nordeste 0 -- -- 84
2021-02-16 03:00:00 10.1 9 Nordeste 19 Nordeste 0 -- -- 84
2021-02-16 02:00:00 10.6 12 Nordeste 20 Este 0 -- -- 82
2021-02-16 01:00:00 11.5 16 Este 26 Este 0 -- -- 78
2021-02-16 00:00:00 12.1 18 Este 30 Este 0 -- -- 76
2021-02-15 23:00:00 12.1 17 Este 30 Este 0 -- -- 77
2021-02-15 22:00:00 12.1 15 Este 24 Este 0 -- -- 77
2021-02-15 21:00:00 12.5 17 Este 30 Este 0 -- -- 75
2021-02-15 20:00:00 13 17 Este 33 Este 0 -- -- 73
2021-02-15 19:00:00 14 17 Este 31 Este 0 -- -- 70
2021-02-15 18:00:00 15.5 18 Este 28 Este 0 -- -- 65
2021-02-15 17:00:00 16.5 19 Este 32 Este 0 -- -- 63
2021-02-15 16:00:00 16.4 20 Este 29 Este 0 -- -- 63
2021-02-15 15:00:00 16 18 Este 32 Este 0 -- -- 65
2021-02-15 14:00:00 15 20 Este 35 Este 0 -- -- 68
2021-02-15 13:00:00 14 21 Este 39 Este 0 -- -- 70
2021-02-15 12:00:00 13 20 Este 39 Este 0 -- -- 70
2021-02-15 11:00:00 11.3 26 Este 42 Este 0 -- -- 76
2021-02-15 10:00:00 9.8 22 Este 38 Este 0 -- -- 80
2021-02-15 09:00:00 8.4 19 Este 33 Este 0 -- -- 85
2021-02-15 08:00:00 8.1 19 Este 30 Este 0 -- -- 86
2021-02-15 07:00:00 8.1 15 Este 25 Este 0 -- -- 85
2021-02-15 06:00:00 8.6 15 Nordeste 26 Nordeste 0 -- -- 82
2021-02-15 05:00:00 9.6 10 Nordeste 20 Nordeste 0 -- -- 78
2021-02-15 04:00:00 10.5 13 Nordeste 25 Nordeste 0 -- -- 73
2021-02-15 03:00:00 11 13 Nordeste 24 Este 0 -- -- 72
2021-02-15 02:00:00 11.5 18 Este 27 Este 0 -- -- 71
2021-02-15 01:00:00 11.9 15 Este 24 Nordeste 0 -- -- 71
2021-02-15 00:00:00 12 16 Nordeste 27 Este 0 -- -- 71
2021-02-14 23:00:00 12.6 16 Nordeste 23 Nordeste 0 -- -- 70
2021-02-14 22:00:00 13.1 14 Nordeste 19 Nordeste 0 -- -- 69
2021-02-14 21:00:00 13 13 Nordeste 18 Nordeste 0 -- -- 71
2021-02-14 20:00:00 13.7 12 Nordeste 17 Nordeste 0 -- -- 67
2021-02-14 19:00:00 14.9 11 Este 18 Este 0 -- -- 64
2021-02-14 18:00:00 16.8 12 Este 22 Este 0 -- -- 59
2021-02-14 17:00:00 17.8 11 Este 24 Este 0 -- -- 60
2021-02-14 16:00:00 17.8 10 Este 20 Sudeste 0 -- -- 59
2021-02-14 15:00:00 17.3 11 Este 21 Este 0 -- -- 63
2021-02-14 14:00:00 16.5 13 Este 22 Este 0 -- -- 64
2021-02-14 13:00:00 15.6 14 Sudeste 22 Este 0 -- -- 64
2021-02-14 12:00:00 14.5 15 Este 27 Este 0 -- -- 68
2021-02-14 11:00:00 12.7 15 Este 26 Este 0 -- -- 72
2021-02-14 10:00:00 10.7 7 Nordeste 16 Este 0 -- -- 77
2021-02-14 09:00:00 8.7 8 Nordeste 15 Nordeste 0 -- -- 83
2021-02-14 08:00:00 8.4 11 Nordeste 19 Este 0 -- -- 84
2021-02-14 07:00:00 9 10 Nordeste 16 Nordeste 0 -- -- 81
2021-02-14 06:00:00 10.1 8 Nordeste 17 Nordeste 0 -- -- 75
2021-02-14 05:00:00 9.4 12 Nordeste 16 Nordeste 0 -- -- 78
2021-02-14 04:00:00 9.5 8 Nordeste 15 Nordeste 0 -- -- 79
2021-02-14 03:00:00 10.1 7 Nordeste 12 Este 0 -- -- 73
2021-02-14 02:00:00 9.6 9 Nordeste 12 Este 0 -- -- 75
2021-02-14 01:00:00 9.2 8 Nordeste 16 Este 0 -- -- 77
2021-02-14 00:00:00 10.4 0 Calma 12 Norte 0 -- -- 71
2021-02-13 23:00:00 12.5 10 Norte 17 Norte 0 -- -- 62
2021-02-13 22:00:00 12.4 13 Norte 17 Noroeste 0 -- -- 61
2021-02-13 21:00:00 12.5 0 Calma 12 Oeste 0 -- -- 65
2021-02-13 20:00:00 13.2 5 Oeste 9 Oeste 0 -- -- 59
2021-02-13 19:00:00 14.4 3 Sudeste 11 Sudoeste 0 -- -- 62
2021-02-13 18:00:00 17 7 Sudoeste 13 Sudoeste 0 -- -- 48
2021-02-13 17:00:00 17.2 8 Sudoeste 15 Oeste 0 -- -- 49
2021-02-13 16:00:00 16.6 6 Sudoeste 16 Sudoeste 0 -- -- 55
2021-02-13 15:00:00 15.9 10 Sudoeste 19 Sur 0 -- -- 59
2021-02-13 14:00:00 14.9 11 Sudoeste 17 Sudoeste 0 -- -- 71
2021-02-13 13:00:00 13.9 11 Sudoeste 18 Sudoeste 0 -- -- 75
2021-02-13 08:00:00 -- -- -- -- -- -- -- -- --
2021-02-13 07:00:00 -- -- -- -- -- -- -- -- --
2021-02-13 06:00:00 7.4 4 Este 6 Este 0 -- -- 93
2021-02-13 05:00:00 7.9 5 Sudoeste 7 Oeste 0 -- -- 88
2021-02-13 04:00:00 7.8 3 Sudoeste 5 Sudoeste 0 -- -- 88
2021-02-13 03:00:00 8.3 0 Calma 6 Este 0 -- -- 88
2021-02-13 02:00:00 8.9 4 Sudoeste 9 Oeste 0 -- -- 85
2021-02-13 01:00:00 9.8 6 Sudoeste 10 Sudoeste 0 -- -- 82
2021-02-13 00:00:00 10.2 4 Sudoeste 10 Oeste 0 -- -- 80
2021-02-12 23:00:00 11 4 Sudeste 17 Noroeste 0 -- -- 76
2021-02-12 22:00:00 10.6 9 Oeste 17 Oeste 0 -- -- 77
2021-02-12 21:00:00 12.2 13 Oeste 31 Oeste 0 -- -- 70
2021-02-12 20:00:00 11.8 10 Oeste 15 Oeste 0 -- -- 73
2021-02-12 19:00:00 13.2 9 Oeste 26 Oeste 0 -- -- 70
2021-02-12 18:00:00 15.8 15 Oeste 27 Oeste 0 -- -- 62
2021-02-12 17:00:00 16.1 20 Oeste 28 Oeste 0 -- -- 59
2021-02-12 16:00:00 15.4 16 Oeste 32 Oeste 0 -- -- 63
2021-02-12 15:00:00 15.7 16 Oeste 31 Oeste 0 -- -- 67
2021-02-12 14:00:00 14.9 17 Oeste 31 Noroeste 0 -- -- 67
2021-02-12 13:00:00 13.9 16 Oeste 32 Oeste 0 -- -- 76
2021-02-12 12:00:00 13.3 17 Oeste 32 Oeste 0 -- -- 79
2021-02-12 11:00:00 11.8 22 Oeste 35 Oeste 0 -- -- 86
2021-02-12 10:00:00 10.4 24 Oeste 33 Oeste 0 -- -- 93
2021-02-12 09:00:00 9.7 21 Oeste 31 Oeste 0 -- -- 95
2021-02-12 08:00:00 9.9 21 Oeste 32 Oeste 0 -- -- 95
2021-02-12 07:00:00 10.4 22 Oeste 33 Oeste 0 -- -- 95
2021-02-12 06:00:00 10.7 16 Oeste 28 Oeste 0 -- -- 96
2021-02-12 05:00:00 11.2 20 Oeste 41 Oeste 0 -- -- 95
2021-02-12 04:00:00 11.9 21 Oeste 42 Sudoeste 0.2 -- -- 98
2021-02-12 03:00:00 12.2 9 Sudoeste 15 Sudoeste 0.4 -- -- 98
2021-02-12 02:00:00 12.1 12 Oeste 22 Oeste 5.2 -- -- 98
2021-02-12 01:00:00 12.2 9 Sudoeste 14 Sudoeste 0.2 -- -- 97
2021-02-12 00:00:00 12.5 7 Sur 22 Sur 0.4 -- -- 97
2021-02-11 23:00:00 12.7 11 Sur 20 Sur 0 -- -- 94
2021-02-11 22:00:00 12.9 9 Sur 18 Sur 0 -- -- 92
2021-02-11 21:00:00 13 6 Sur 18 Sur 0 -- -- 92
2021-02-11 20:00:00 13.3 10 Sur 15 Sudoeste 0 -- -- 93
2021-02-11 19:00:00 13.5 8 Sur 13 Sur 0 -- -- 93
2021-02-11 18:00:00 13.9 6 Sur 14 Oeste 0.2 -- -- 95
2021-02-11 17:00:00 14 12 Sudoeste 27 Sudoeste 0 -- -- 92
2021-02-11 16:00:00 14.9 14 Sur 23 Sudoeste 0 -- -- 86
2021-02-11 15:00:00 14.5 10 Sur 19 Sur 0.2 -- -- 93
2021-02-11 14:00:00 13.3 13 Sudoeste 25 Sur 0 -- -- 96
2021-02-11 13:00:00 13.1 10 Sudoeste 17 Sudoeste 0 -- -- 95
2021-02-11 12:00:00 12.7 11 Sur 21 Sur 0 -- -- 96
2021-02-11 11:00:00 12.1 10 Sur 14 Sudoeste 0.2 -- -- 97
2021-02-11 10:00:00 11.8 6 Sur 10 Sur 0 -- -- 97
2021-02-11 09:00:00 11.7 5 Sudoeste 10 Sudoeste 0 -- -- 97
2021-02-11 08:00:00 11.7 8 Sudoeste 15 Sudoeste 0 -- -- 97
2021-02-11 07:00:00 12 6 Sudoeste 9 Sudoeste 0 -- -- 97
2021-02-11 06:00:00 12.1 6 Sur 10 Sur 0 -- -- 97
2021-02-11 05:00:00 11.9 0 Calma 2 Norte 0.2 -- -- 97
2021-02-11 04:00:00 11.7 2 Este 4 Nordeste 0.4 -- -- 97
2021-02-11 03:00:00 11.6 2 Norte 4 Este 0.4 -- -- 96
2021-02-11 02:00:00 11.4 2 Nordeste 7 Nordeste 0.8 -- -- 96
2021-02-11 01:00:00 11.1 4 Nordeste 6 Norte 0.4 -- -- 96
2021-02-11 00:00:00 11.1 3 Nordeste 4 Nordeste 0.4 -- -- 94
2021-02-10 23:00:00 11.7 2 Sudeste 6 Nordeste 0 -- -- 87
2021-02-10 22:00:00 11.8 3 Nordeste 11 Sudoeste 0 -- -- 83
2021-02-10 21:00:00 11.9 4 Sur 8 Oeste 0 -- -- 76
2021-02-10 20:00:00 12.1 7 Oeste 17 Oeste 0 -- -- 75
2021-02-10 19:00:00 12 8 Sudoeste 18 Oeste 0 -- -- 77
2021-02-10 18:00:00 12.8 12 Oeste 26 Oeste 0 -- -- 73
2021-02-10 17:00:00 14 15 Oeste 28 Oeste 0 -- -- 66
2021-02-10 16:00:00 15.8 19 Oeste 30 Sudoeste 0 -- -- 58
2021-02-10 15:00:00 14.9 17 Oeste 29 Oeste 0 -- -- 63
2021-02-10 14:00:00 14.3 22 Sudoeste 33 Sudoeste 0 -- -- 63
2021-02-10 13:00:00 13.4 20 Oeste 30 Oeste 0 -- -- 72
2021-02-10 12:00:00 11.6 19 Oeste 35 Oeste 0 -- -- 77
2021-02-10 11:00:00 11.2 22 Oeste 32 Sudoeste 0 -- -- 82
2021-02-10 10:00:00 9.7 15 Oeste 22 Oeste 0 -- -- 90
2021-02-10 09:00:00 7.5 13 Oeste 15 Sudoeste 0 -- -- 93
2021-02-10 08:00:00 8.2 3 Noroeste 8 Sudoeste 0 -- -- 89
2021-02-10 07:00:00 9 2 Noroeste 37 Oeste 0 -- -- 89
2021-02-10 06:00:00 9.5 27 Oeste 43 Oeste 0 -- -- 91
2021-02-10 05:00:00 10.2 28 Oeste 48 Oeste 0 -- -- 88
2021-02-10 04:00:00 9.9 33 Oeste 53 Oeste 0.2 -- -- 88
2021-02-10 03:00:00 10.2 36 Sudoeste 66 Sudoeste 0.4 -- -- 86
2021-02-10 02:00:00 9.5 23 Sudoeste 41 Sudoeste 0.2 -- -- 89
2021-02-10 01:00:00 9.1 23 Sudoeste 37 Sudoeste 0.8 -- -- 95
2021-02-10 00:00:00 9.5 24 Sudoeste 41 Sudoeste 0 -- -- 88
2021-02-09 23:00:00 9.4 19 Sudoeste 36 Sudoeste 0.2 -- -- 90
2021-02-09 22:00:00 9 7 Oeste 29 Sudoeste 0 -- -- 91
2021-02-09 21:00:00 8.8 9 Sudoeste 29 Oeste 0 -- -- 91
2021-02-09 20:00:00 9.5 22 Oeste 52 Sudoeste 0.2 -- -- 85
2021-02-09 19:00:00 10.9 23 Sudoeste 40 Sudoeste 0 -- -- 84
2021-02-09 18:00:00 12.1 29 Sudoeste 42 Oeste 0 -- -- 79
2021-02-09 17:00:00 11 23 Sudoeste 45 Sudoeste 0 -- -- 87
2021-02-09 16:00:00 10.7 27 Sudoeste 46 Sudoeste 0.2 -- -- 89
2021-02-09 15:00:00 10 18 Oeste 43 Oeste 1.8 -- -- 96
2021-02-09 14:00:00 10 26 Oeste 44 Oeste 0.8 -- -- 95
2021-02-09 13:00:00 10.3 42 Oeste 69 Oeste 3.4 -- -- 95
2021-02-09 12:00:00 10.1 29 Sudoeste 47 Sur 1.8 -- -- 97
2021-02-09 11:00:00 9.7 28 Sur 41 Sudoeste 2.6 -- -- 97
2021-02-09 10:00:00 9.6 26 Sudoeste 44 Sur 1 -- -- 97
2021-02-09 09:00:00 9.6 21 Sudoeste 41 Sur 0 -- -- 95
2021-02-09 08:00:00 9.5 19 Sudoeste 39 Sudoeste 0 -- -- 95
2021-02-09 07:00:00 9.6 23 Sudoeste 38 Sudoeste 0 -- -- 94
2021-02-09 06:00:00 9.3 22 Sudoeste 33 Sudoeste 0.4 -- -- 98
2021-02-09 05:00:00 9 16 Sur 27 Sudoeste 0.2 -- -- 97
2021-02-09 04:00:00 8.7 10 Sudoeste 26 Sudoeste 0.4 -- -- 96
2021-02-09 03:00:00 8.8 10 Sudoeste 28 Sudoeste 0 -- -- 92
2021-02-09 02:00:00 8.9 16 Sudoeste 29 Sudoeste 0 -- -- 90
2021-02-09 01:00:00 8.7 9 Sudoeste 20 Sudoeste 0 -- -- 88
2021-02-09 00:00:00 9 17 Sudoeste 24 Sudoeste 0 -- -- 88
2021-02-08 23:00:00 8.8 10 Sudoeste 21 Sudoeste 0 -- -- 87
2021-02-08 22:00:00 8.5 11 Oeste 21 Oeste 0 -- -- 84
2021-02-08 21:00:00 8.7 16 Oeste 26 Oeste 0 -- -- 78
2021-02-08 20:00:00 9 7 Sudoeste 23 Oeste 0 -- -- 82
2021-02-08 19:00:00 9.7 15 Oeste 28 Sudoeste 0 -- -- 73
2021-02-08 18:00:00 10.8 23 Sudoeste 37 Oeste 0 -- -- 77
2021-02-08 17:00:00 12.1 22 Oeste 40 Oeste 0 -- -- 70
2021-02-08 16:00:00 12.1 29 Oeste 53 Oeste 0 -- -- 67
2021-02-08 15:00:00 12.4 30 Oeste 53 Sudoeste 0 -- -- 69
2021-02-08 14:00:00 12.5 35 Oeste 49 Sudoeste 0 -- -- 72
2021-02-08 13:00:00 11.3 31 Oeste 47 Oeste 0 -- -- 75
2021-02-08 12:00:00 10.4 24 Oeste 41 Sudoeste 0 -- -- 84
2021-02-08 11:00:00 9.8 28 Oeste 45 Oeste 0 -- -- 93
2021-02-08 10:00:00 8.3 18 Sudoeste 28 Sudoeste 2.2 -- -- 97
2021-02-08 09:00:00 8 11 Sudoeste 19 Sudoeste 0 -- -- 96
2021-02-08 08:00:00 7.8 8 Sudoeste 15 Sudoeste 0 -- -- 96
2021-02-08 07:00:00 7.6 5 Oeste 14 Oeste 0.2 -- -- 95
2021-02-08 06:00:00 7.7 13 Oeste 31 Oeste 0 -- -- 94
2021-02-08 05:00:00 9 14 Oeste 21 Oeste 0 -- -- 97
2021-02-08 04:00:00 9.4 11 Oeste 33 Sudoeste 2 -- -- 97
2021-02-08 03:00:00 9.5 14 Sudoeste 24 Sudoeste 2.4 -- -- 98
2021-02-08 02:00:00 9.4 18 Sudoeste 36 Sur 2 -- -- 97
2021-02-08 01:00:00 9.2 19 Sudoeste 35 Sudoeste 2.2 -- -- 96
2021-02-08 00:00:00 9 16 Sudoeste 29 Sudoeste 0 -- -- 94
2021-02-07 23:00:00 8.8 15 Sudoeste 25 Sudoeste 0 -- -- 94
2021-02-07 22:00:00 8.6 9 Sur 17 Sur 0 -- -- 91
2021-02-07 21:00:00 8.5 12 Sudoeste 19 Sudoeste 0 -- -- 89
2021-02-07 20:00:00 8.3 9 Sudoeste 14 Sudoeste 0 -- -- 88
2021-02-07 19:00:00 8.2 9 Sudoeste 21 Oeste 0 -- -- 88
2021-02-07 18:00:00 8.1 18 Oeste 29 Sudoeste 0.2 -- -- 89
2021-02-07 17:00:00 8.5 16 Oeste 29 Sudoeste 0 -- -- 83
2021-02-07 16:00:00 8.5 18 Oeste 32 Sudoeste 0 -- -- 81
2021-02-07 15:00:00 9.8 22 Oeste 31 Sudoeste 0 -- -- 70
2021-02-07 14:00:00 9.8 22 Oeste 31 Sudoeste 0 -- -- 73
2021-02-07 13:00:00 9.8 17 Sudoeste 27 Sudoeste 0 -- -- 78
2021-02-07 12:00:00 10.2 14 Oeste 22 Sudoeste 0 -- -- 75
2021-02-07 11:00:00 8.9 9 Sudoeste 17 Sudoeste 0 -- -- 78
2021-02-07 10:00:00 6.6 5 Sudoeste 11 Sudoeste 0 -- -- 87
2021-02-07 09:00:00 4.7 4 Sudeste 9 Sur 0 -- -- 92
2021-02-07 08:00:00 5.3 4 Sur 19 Norte 0 -- -- 86
2021-02-07 07:00:00 6.8 15 Norte 31 Norte 0 -- -- 81
2021-02-07 06:00:00 6.9 23 Norte 33 Noroeste 0 -- -- 83
2021-02-07 05:00:00 8 19 Norte 35 Norte 0 -- -- 75
2021-02-07 04:00:00 7.7 27 Norte 35 Norte 0 -- -- 79
2021-02-07 03:00:00 8 23 Norte 40 Norte 0 -- -- 78
2021-02-07 02:00:00 8.5 33 Norte 48 Norte 0 -- -- 74
2021-02-07 01:00:00 8.8 32 Norte 47 Norte 0 -- -- 74
2021-02-07 00:00:00 9.1 34 Norte 53 Norte 0 -- -- 74
2021-02-06 23:00:00 8.9 37 Norte 52 Norte 0 -- -- 79
2021-02-06 22:00:00 9.2 38 Norte 50 Norte 0.2 -- -- 84
2021-02-06 21:00:00 9.1 10 Norte 27 Norte 0 -- -- 91
2021-02-06 20:00:00 9.5 2 Sudeste 9 Sudoeste 0 -- -- 90
2021-02-06 19:00:00 10.2 0 Calma 15 Noroeste 0 -- -- 88
2021-02-06 18:00:00 10.5 7 Oeste 20 Oeste 0 -- -- 87
2021-02-06 17:00:00 11.3 13 Oeste 19 Oeste 0 -- -- 86
2021-02-06 16:00:00 11.2 12 Oeste 17 Oeste 0 -- -- 91
2021-02-06 15:00:00 11 13 Oeste 19 Sudoeste 0.2 -- -- 93
2021-02-06 14:00:00 9.8 10 Oeste 14 Oeste 1 -- -- 96
2021-02-06 13:00:00 9.6 3 Sudoeste 8 Oeste 1 -- -- 96
2021-02-06 12:00:00 9.5 6 Oeste 10 Sudoeste 0.6 -- -- 96
2021-02-06 11:00:00 9.4 3 Nordeste 5 Nordeste 0.4 -- -- 98
2021-02-06 10:00:00 8.9 3 Nordeste 6 Este 0.6 -- -- 98
2021-02-06 09:00:00 8.7 4 Este 6 Este 0.8 -- -- 98
2021-02-06 08:00:00 8.7 0 Calma 2 Este 0.4 -- -- 97
2021-02-06 07:00:00 8.7 0 Calma 4 Sur 0 -- -- 98
2021-02-06 06:00:00 9 3 Sur 6 Sur 0.2 -- -- 98
2021-02-06 05:00:00 9.1 0 Calma 3 Sudoeste 0 -- -- 98
2021-02-06 04:00:00 9.1 2 Sur 9 Sudeste 0 -- -- 98
2021-02-06 03:00:00 9.3 5 Sur 13 Sudeste 1.4 -- -- 98
2021-02-06 02:00:00 9.2 6 Este 11 Este 2 -- -- 97
2021-02-06 01:00:00 8.8 8 Nordeste 13 Nordeste 0.2 -- -- 96
2021-02-06 00:00:00 8.9 8 Nordeste 13 Nordeste 0.4 -- -- 96
2021-02-05 23:00:00 8.8 5 Este 17 Norte 0.4 -- -- 95
2021-02-05 22:00:00 8.9 12 Norte 21 Norte 0.2 -- -- 91
2021-02-05 21:00:00 9 15 Norte 24 Norte 0.2 -- -- 92
2021-02-05 20:00:00 9.3 4 Nordeste 8 Nordeste 1.2 -- -- 96
2021-02-05 19:00:00 9.8 3 Sur 6 Sudoeste 2.2 -- -- 96
2021-02-05 18:00:00 10.1 5 Sudoeste 9 Sur 0.2 -- -- 94
2021-02-05 17:00:00 10.4 0 Calma 7 Oeste 0.2 -- -- 94
2021-02-05 16:00:00 10.5 4 Nordeste 9 Nordeste 0.4 -- -- 92
2021-02-05 15:00:00 10.6 5 Sudoeste 13 Sudoeste 0.8 -- -- 94
2021-02-05 14:00:00 11 6 Sudoeste 10 Sudoeste 0.2 -- -- 91
2021-02-05 13:00:00 11.4 4 Oeste 5 Oeste 0 -- -- 91
2021-02-05 12:00:00 11.3 0 Calma 6 Nordeste 0.2 -- -- 89
2021-02-05 11:00:00 11 4 Sur 15 Nordeste 0 -- -- 88
2021-02-05 10:00:00 10.8 6 Este 21 Este 0 -- -- 90
2021-02-05 09:00:00 10.4 14 Este 21 Nordeste 0.6 -- -- 93
2021-02-05 08:00:00 10.5 11 Este 21 Este 3.2 -- -- 94
2021-02-05 07:00:00 10 9 Sur 19 Sudoeste 1 -- -- 95
2021-02-05 06:00:00 10 8 Nordeste 15 Nordeste 1.2 -- -- 95
2021-02-05 05:00:00 9.9 10 Nordeste 22 Nordeste 0 -- -- 90
2021-02-05 04:00:00 10.5 20 Nordeste 36 Nordeste 0.4 -- -- 90
2021-02-05 03:00:00 10.1 15 Nordeste 29 Norte 0 -- -- 89
2021-02-05 02:00:00 9.4 20 Norte 32 Norte 0 -- -- 94
2021-02-05 01:00:00 9.3 15 Norte 24 Norte 0.2 -- -- 95
2021-02-05 00:00:00 9.7 5 Norte 22 Norte 1 -- -- 97
2021-02-04 23:00:00 9.2 15 Norte 24 Norte 0 -- -- 96
2021-02-04 22:00:00 9.5 6 Noroeste 13 Norte 0 -- -- 91
2021-02-04 21:00:00 9.1 7 Nordeste 12 Nordeste 0.6 -- -- 96
2021-02-04 20:00:00 9.2 10 Oeste 14 Oeste 1.6 -- -- 96
2021-02-04 19:00:00 9.3 6 Norte 21 Este 0 -- -- 92
2021-02-04 18:00:00 9.7 14 Este 21 Este 1.4 -- -- 95
2021-02-04 17:00:00 9.6 8 Nordeste 15 Norte 1.2 -- -- 93
2021-02-04 16:00:00 9.8 8 Norte 23 Norte 1.2 -- -- 93
2021-02-04 15:00:00 9.9 16 Norte 22 Norte 0.8 -- -- 92
2021-02-04 14:00:00 10.3 17 Norte 26 Norte 1.8 -- -- 96
2021-02-04 13:00:00 9.7 13 Norte 21 Norte 3.8 -- -- 95
2021-02-04 12:00:00 9.8 8 Noroeste 13 Noroeste 4 -- -- 96
2021-02-04 11:00:00 9.3 12 Nordeste 17 Nordeste 2.8 -- -- 97
2021-02-04 10:00:00 8.8 8 Este 17 Este 3.6 -- -- 97
2021-02-04 09:00:00 8.9 2 Sudeste 15 Este 0.8 -- -- 97
2021-02-04 08:00:00 9.1 8 Este 15 Este 0.4 -- -- 96
2021-02-04 07:00:00 9.1 8 Este 14 Nordeste 0.4 -- -- 96
2021-02-04 06:00:00 9.4 6 Este 11 Este 0.4 -- -- 95
2021-02-04 05:00:00 9.6 3 Este 10 Este 0.4 -- -- 95
2021-02-04 04:00:00 9.8 8 Sudeste 15 Sudeste 0.2 -- -- 95
2021-02-04 03:00:00 10.4 7 Sudeste 12 Sudeste 0 -- -- 97
2021-02-04 02:00:00 10.8 6 Sur 13 Sur 0 -- -- 98
2021-02-04 01:00:00 11 7 Sur 17 Sur 0.2 -- -- 98
2021-02-04 00:00:00 11.1 4 Sur 9 Sur 0.4 -- -- 98